Time;durP1;ratioP1;P1;durP2;ratioP2;P2;SDS_P1;SDS_P2;PMS_P1;PMS_P2;Temp;Humidity;BMP_temperature;BMP_pressure;BME280_temperature;BME280_humidity;BME280_pressure;Samples;Min_cycle;Max_cycle;Signal;HPM_P1;HPM_P2
2022/10/27 00:01:31;;;;;;;7.70;5.12;;;;;;;11.61;100.00;100206.38;1740366;81;21546;-60
2022/10/27 00:03:57;;;;;;;7.10;5.25;;;;;;;11.57;100.00;100206.11;1790604;78;21430;-60
2022/10/27 00:06:25;;;;;;;7.42;5.35;;;;;;;11.53;100.00;100201.88;1774187;80;21494;-60
2022/10/27 00:08:53;;;;;;;5.33;4.83;;;;;;;11.52;100.00;100213.31;1805373;78;21493;-61
2022/10/27 00:11:19;;;;;;;5.65;5.12;;;;;;;11.53;100.00;100213.73;1779298;78;21763;-60
2022/10/27 00:13:47;;;;;;;6.10;4.65;;;;;;;11.53;100.00;100219.43;1796481;78;21438;-60
2022/10/27 00:16:15;;;;;;;7.42;5.15;;;;;;;11.55;100.00;100225.53;1751843;80;21424;-60
2022/10/27 00:18:42;;;;;;;4.92;4.35;;;;;;;11.55;100.00;100230.33;1746891;80;21439;-61
2022/10/27 00:21:11;;;;;;;;;;;;;;;11.56;100.00;100232.03;1746287;80;21483;-60
2022/10/27 00:23:38;;;;;;;5.92;4.83;;;;;;;11.49;100.00;100234.52;1732679;81;21781;-60
2022/10/27 00:26:06;;;;;;;4.28;3.98;;;;;;;11.54;100.00;100235.18;1734758;81;21180;-60
2022/10/27 00:28:33;;;;;;;6.50;4.12;;;;;;;11.61;100.00;100239.77;1726720;81;21482;-60
2022/10/27 00:31:06;;;;;;;6.28;4.37;;;;;;;11.67;100.00;100247.44;1786771;78;21508;-62
2022/10/27 00:33:33;;;;;;;8.55;4.28;;;;;;;11.75;100.00;100248.46;1792891;78;21519;-59
2022/10/27 00:36:07;;;;;;;9.35;4.40;;;;;;;11.77;100.00;100243.98;1788278;78;21608;-60
2022/10/27 00:38:35;;;;;;;5.67;4.25;;;;;;;11.83;100.00;100246.41;1782209;78;21469;-59
2022/10/27 00:41:02;;;;;;;7.62;4.55;;;;;;;11.85;100.00;100244.11;1748407;80;21581;-60
2022/10/27 00:43:37;;;;;;;6.40;4.53;;;;;;;11.90;100.00;100245.73;1743223;80;21488;-60
2022/10/27 00:46:18;;;;;;;4.80;4.40;;;;;;;11.87;100.00;100246.69;1752924;79;21499;-59
2022/10/27 00:48:47;;;;;;;8.48;4.35;;;;;;;11.85;100.00;100245.89;1784389;78;21787;-60
2022/10/27 00:51:14;;;;;;;9.10;4.30;;;;;;;11.90;100.00;100239.14;1775883;78;21434;-60
2022/10/27 00:53:42;;;;;;;5.28;4.60;;;;;;;11.92;100.00;100246.53;1780919;78;21513;-60
2022/10/27 00:56:08;;;;;;;8.50;4.42;;;;;;;11.96;100.00;100242.85;1761385;80;21586;-59
2022/10/27 00:58:35;;;;;;;4.50;4.00;;;;;;;11.98;100.00;100251.12;1807944;78;20978;-59
2022/10/27 01:01:03;;;;;;;7.15;4.37;;;;;;;12.00;100.00;100247.11;1762864;79;21830;-60
2022/10/27 01:03:30;;;;;;;6.50;4.58;;;;;;;12.02;100.00;100256.66;1792478;78;21434;-60
2022/10/27 01:05:57;;;;;;;;;;;;;;;12.02;100.00;100246.12;1767106;80;21549;-61
2022/10/27 01:08:24;;;;;;;5.47;4.17;;;;;;;11.95;100.00;100253.86;1764438;80;20426;-59
2022/10/27 01:10:50;;;;;;;5.50;4.05;;;;;;;12.01;100.00;100261.52;1773851;79;20935;-60
2022/10/27 01:13:17;;;;;;;7.40;4.20;;;;;;;12.03;100.00;100256.19;1804099;78;21858;-60
2022/10/27 01:16:10;;;;;;;6.20;3.90;;;;;;;12.04;100.00;100262.73;1744304;80;21713;-60
2022/10/27 01:18:54;;;;;;;7.40;4.80;;;;;;;12.09;100.00;100267.81;1776691;78;21406;-59
2022/10/27 01:22:01;;;;;;;6.37;4.50;;;;;;;12.11;100.00;100266.00;1787740;78;21398;-60
2022/10/27 01:24:42;;;;;;;;;;;;;;;12.10;100.00;100267.37;1809667;78;21379;-60
2022/10/27 01:27:43;;;;;;;4.12;3.50;;;;;;;11.99;100.00;100267.78;1785842;78;21823;-60
2022/10/27 01:30:13;;;;;;;9.33;4.53;;;;;;;12.08;100.00;100276.18;1772289;78;21233;-59
2022/10/27 01:33:11;;;;;;;6.87;4.60;;;;;;;12.12;100.00;100268.16;1786425;78;21647;-60
2022/10/27 01:35:53;;;;;;;7.75;4.50;;;;;;;12.12;100.00;100273.44;1778458;78;20954;-59
2022/10/27 01:38:28;;;;;;;7.20;4.37;;;;;;;12.05;100.00;100273.69;1750341;80;21422;-59
2022/10/27 01:41:09;;;;;;;5.15;4.10;;;;;;;12.02;100.00;100268.52;1742996;80;21842;-59
2022/10/27 01:43:35;;;;;;;4.62;4.22;;;;;;;12.04;100.00;100270.64;1765505;80;20986;-59
2022/10/27 01:46:05;;;;;;;6.95;4.80;;;;;;;12.06;100.00;100267.95;1787535;78;21513;-59
2022/10/27 01:48:33;;;;;;;7.15;4.33;;;;;;;12.07;100.00;100273.60;1809930;78;21601;-59
2022/10/27 01:51:00;;;;;;;7.70;4.17;;;;;;;12.07;100.00;100273.16;1738849;80;21421;-60
2022/10/27 01:53:33;;;;;;;4.53;3.85;;;;;;;12.08;100.00;100276.18;1731038;81;21812;-59
2022/10/27 01:56:05;;;;;;;6.92;4.25;;;;;;;12.12;100.00;100275.61;1722438;81;21475;-59
2022/10/27 01:59:05;;;;;;;6.50;4.30;;;;;;;12.12;100.00;100281.34;1690251;81;21619;-59
2022/10/27 02:02:05;;;;;;;4.83;3.55;;;;;;;12.13;100.00;100281.73;1684547;82;21594;-60
2022/10/27 02:05:04;;;;;;;6.30;4.20;;;;;;;12.09;100.00;100278.34;1741965;81;21627;-59
2022/10/27 02:07:48;;;;;;;6.03;4.15;;;;;;;12.06;100.00;100288.56;1721812;81;21855;-59
2022/10/27 02:10:33;;;;;;;4.78;3.75;;;;;;;12.00;100.00;100288.81;1778385;78;21528;-60
2022/10/27 02:13:00;;;;;;;4.17;3.80;;;;;;;11.98;100.00;100292.40;1777738;80;21599;-59
2022/10/27 02:15:35;;;;;;;7.33;4.22;;;;;;;12.00;100.00;100299.81;1742989;80;21041;-59
2022/10/27 02:18:09;;;;;;;5.08;3.92;;;;;;;11.99;100.00;100300.25;1745121;80;21553;-59
2022/10/27 02:20:39;;;;;;;6.28;4.30;;;;;;;11.95;100.00;100305.25;1773930;78;21835;-60
2022/10/27 02:23:09;;;;;;;7.05;4.17;;;;;;;11.90;100.00;100312.45;1777707;78;21482;-59
2022/10/27 02:25:45;;;;;;;5.80;4.20;;;;;;;11.90;100.00;100319.52;1777856;80;21541;-59
2022/10/27 02:28:12;;;;;;;4.50;4.10;;;;;;;11.92;100.00;100320.31;1789401;78;21562;-60
2022/10/27 02:30:39;;;;;;;6.53;3.70;;;;;;;11.88;100.00;100313.83;1780911;78;21477;-60
2022/10/27 02:33:06;;;;;;;8.15;4.83;;;;;;;11.87;100.00;100317.83;1807332;78;21850;-59
2022/10/27 02:35:33;;;;;;;6.72;3.70;;;;;;;11.90;100.00;100328.27;1770260;80;21568;-60
2022/10/27 02:38:00;;;;;;;7.05;3.52;;;;;;;11.94;100.00;100317.16;1772388;77;21438;-59
2022/10/27 02:40:26;;;;;;;8.40;4.33;;;;;;;11.98;100.00;100320.95;1786719;77;21486;-60
2022/10/27 02:42:53;;;;;;;4.22;3.75;;;;;;;11.97;100.00;100319.22;1738662;81;21464;-59
2022/10/27 02:45:20;;;;;;;4.37;3.98;;;;;;;12.02;100.00;100323.02;1738209;81;21529;-60
2022/10/27 02:47:47;;;;;;;4.12;3.80;;;;;;;12.00;100.00;100321.75;1739845;81;21713;-61
2022/10/27 02:50:14;;;;;;;5.50;3.75;;;;;;;11.97;100.00;100327.12;1744314;81;21485;-60
2022/10/27 02:52:44;;;;;;;7.15;4.17;;;;;;;11.96;100.00;100329.81;1769046;80;21430;-60
2022/10/27 02:55:10;;;;;;;3.98;3.67;;;;;;;12.00;100.00;100332.30;1743331;80;21442;-59
2022/10/27 05:48:16;;;;;;;6.92;5.62;;;;;;;9.92;100.00;100444.64;1843940;75;27353;-59
2022/10/27 05:50:43;;;;;;;6.80;5.40;;;;;;;10.29;100.00;100465.97;1821364;76;21544;-61
2022/10/27 05:53:10;;;;;;;5.15;4.47;;;;;;;10.54;100.00;100474.49;1808819;76;21855;-64
2022/10/27 05:55:38;;;;;;;5.12;4.25;;;;;;;10.74;100.00;100476.51;1829013;77;21528;-61
2022/10/27 05:58:06;;;;;;;4.92;4.42;;;;;;;10.90;100.00;100464.61;1835709;77;21599;-62
2022/10/27 06:00:35;;;;;;;6.95;4.12;;;;;;;11.05;100.00;100471.17;1800895;77;21009;-69
2022/10/27 06:03:04;;;;;;;5.10;4.60;;;;;;;11.17;100.00;100473.86;1819355;78;21458;-64
2022/10/27 06:05:30;;;;;;;5.47;4.42;;;;;;;11.32;100.00;100473.83;1823763;78;21772;-66
2022/10/27 06:07:59;;;;;;;7.10;4.20;;;;;;;11.46;100.00;100479.51;1807071;78;21571;-68
2022/10/27 06:10:28;;;;;;;5.25;4.53;;;;;;;11.57;100.00;100472.58;1796807;78;21386;-69
2022/10/27 06:13:02;;;;;;;5.85;4.42;;;;;;;11.68;100.00;100477.02;1785728;78;21410;-66
2022/10/27 06:15:29;;;;;;;6.53;4.00;;;;;;;11.73;100.00;100475.07;1801390;78;21583;-66
2022/10/27 06:17:57;;;;;;;5.75;4.35;;;;;;;11.77;100.00;100474.51;1808568;77;21963;-65
2022/10/27 06:20:23;;;;;;;4.92;3.45;;;;;;;11.84;100.00;100474.70;1800016;78;21540;-65
2022/10/27 06:22:50;;;;;;;7.40;4.20;;;;;;;11.87;100.00;100471.98;1803657;78;21519;-65
2022/10/27 06:25:17;;;;;;;5.67;4.17;;;;;;;11.90;100.00;100475.84;1814063;78;21628;-66
2022/10/27 06:27:44;;;;;;;8.67;4.27;;;;;;;11.98;100.00;100478.20;1750547;80;21431;-61
2022/10/27 06:30:11;;;;;;;8.60;4.08;;;;;;;12.00;100.00;100474.61;1810485;78;21796;-61
2022/10/27 06:32:40;;;;;;;6.25;4.35;;;;;;;12.04;100.00;100483.28;1805646;77;21167;-60
2022/10/27 06:35:07;;;;;;;6.08;4.80;;;;;;;12.03;100.00;100470.53;1806852;78;20947;-60
2022/10/27 06:37:40;;;;;;;6.15;4.15;;;;;;;12.07;100.00;100476.55;1793674;78;21742;-60
2022/10/27 06:40:07;;;;;;;4.90;4.10;;;;;;;12.08;100.00;100475.66;1806844;78;21407;-59
2022/10/27 06:42:36;;;;;;;6.10;4.30;;;;;;;12.09;100.00;100480.00;1797368;78;21855;-60
2022/10/27 06:45:03;;;;;;;6.33;3.72;;;;;;;12.04;100.00;100479.32;1809549;78;21596;-60
2022/10/27 06:47:32;;;;;;;6.17;4.05;;;;;;;12.01;100.00;100475.47;1814389;78;21627;-59
2022/10/27 06:49:58;;;;;;;5.17;4.22;;;;;;;12.04;100.00;100484.13;1790755;78;21644;-59
2022/10/27 06:52:26;;;;;;;5.65;4.53;;;;;;;12.08;100.00;100485.73;1775402;79;20987;-59
2022/10/27 06:54:53;;;;;;;7.80;4.40;;;;;;;12.10;100.00;100488.79;1780811;78;21901;-60
2022/10/27 06:57:21;;;;;;;7.17;4.42;;;;;;;12.10;100.00;100484.83;1799566;77;21624;-61
2022/10/27 06:59:47;;;;;;;4.60;4.20;;;;;;;12.12;100.00;100491.76;1812593;77;21517;-61
2022/10/27 07:02:14;;;;;;;5.78;4.12;;;;;;;12.13;100.00;100487.34;1829319;77;21529;-60
2022/10/27 07:04:41;;;;;;;7.15;4.50;;;;;;;12.17;100.00;100486.34;1814806;77;21132;-60
2022/10/27 07:07:08;;;;;;;5.28;4.72;;;;;;;12.24;100.00;100482.54;1841239;77;21882;-61
2022/10/27 07:09:35;;;;;;;6.95;4.50;;;;;;;12.27;100.00;100484.61;1826513;77;20993;-61
2022/10/27 07:12:02;;;;;;;6.40;4.40;;;;;;;12.30;100.00;100490.25;1812527;78;21647;-61
2022/10/27 07:14:30;;;;;;;5.28;4.35;;;;;;;12.24;100.00;100490.02;1825370;77;21952;-61
2022/10/27 07:16:58;;;;;;;7.72;4.75;;;;;;;12.27;100.00;100489.88;1821519;77;21511;-60
2022/10/27 07:19:25;;;;;;;;;;;;;;;12.32;100.00;100488.85;1818458;77;21796;-60
2022/10/27 07:21:51;;;;;;;5.45;4.00;;;;;;;12.25;100.00;100483.81;1821775;77;20427;-60
2022/10/27 07:24:18;;;;;;;4.87;4.30;;;;;;;12.30;100.00;100491.57;1783067;77;21438;-60
2022/10/27 07:26:44;;;;;;;9.85;4.45;;;;;;;12.34;100.00;100494.92;1822404;77;21580;-60
2022/10/27 07:29:11;;;;;;;7.97;4.25;;;;;;;12.36;100.00;100501.03;1824416;77;21603;-61
2022/10/27 07:31:38;;;;;;;6.47;4.65;;;;;;;12.42;100.00;100491.10;1805904;77;21811;-60
2022/10/27 07:34:05;;;;;;;5.85;4.20;;;;;;;12.46;100.00;100495.34;1822323;77;21561;-60
2022/10/27 07:36:31;;;;;;;6.62;4.42;;;;;;;12.52;100.00;100496.04;1818807;77;21409;-60
2022/10/27 07:38:58;;;;;;;7.72;4.50;;;;;;;12.58;100.00;100498.00;1810096;77;21511;-62
2022/10/27 07:41:24;;;;;;;6.70;4.25;;;;;;;12.64;100.00;100496.91;1809511;77;21558;-61
2022/10/27 07:43:51;;;;;;;5.95;4.12;;;;;;;12.71;100.00;100497.05;1822147;77;21870;-60
2022/10/27 07:46:18;;;;;;;4.37;3.98;;;;;;;12.75;100.00;100506.60;1810601;77;21575;-60
2022/10/27 07:48:44;;;;;;;5.50;4.75;;;;;;;12.82;100.00;100498.83;1814720;77;21470;-60
2022/10/27 07:51:11;;;;;;;5.15;4.35;;;;;;;12.91;100.00;100497.63;1823659;76;22231;-59
2022/10/27 07:53:38;;;;;;;7.85;4.78;;;;;;;12.94;100.00;100501.91;1817477;78;21554;-59
2022/10/27 07:56:06;;;;;;;8.03;4.78;;;;;;;13.02;100.00;100505.13;1814329;77;22208;-66
2022/10/27 07:58:33;;;;;;;5.50;4.42;;;;;;;13.04;100.00;100504.14;1819263;77;21563;-61
2022/10/27 08:01:02;;;;;;;4.67;4.03;;;;;;;13.08;100.00;100498.75;1809478;77;21433;-60
2022/10/27 08:03:30;;;;;;;4.37;3.72;;;;;;;13.10;100.00;100505.67;1815676;78;21434;-61
2022/10/27 08:06:03;;;;;;;4.15;3.72;;;;;;;13.17;100.00;100500.55;1816908;77;21511;-62
2022/10/27 08:08:30;;;;;;;5.17;4.20;;;;;;;13.22;100.00;100500.36;1815043;77;21939;-60
2022/10/27 08:10:57;;;;;;;4.75;3.92;;;;;;;13.29;100.00;100504.48;1824422;77;21431;-62
2022/10/27 08:13:24;;;;;;;4.95;3.72;;;;;;;13.03;100.00;100444.80;1814411;77;21564;-61
2022/10/27 08:15:50;;;;;;;6.58;3.98;;;;;;;13.38;100.00;100504.14;1807436;77;21026;-62
2022/10/27 08:18:17;;;;;;;4.37;3.62;;;;;;;13.38;100.00;100505.94;1811335;77;21414;-61
2022/10/27 08:20:45;;;;;;;4.03;3.58;;;;;;;13.42;100.00;100508.84;1826436;77;21857;-61
2022/10/27 08:23:15;;;;;;;6.55;3.90;;;;;;;13.44;100.00;100506.52;1826091;77;21392;-60
2022/10/27 08:25:42;;;;;;;5.35;3.80;;;;;;;13.43;100.00;100513.22;1825559;77;21478;-59
2022/10/27 08:28:10;;;;;;;4.25;3.67;;;;;;;13.42;100.00;100510.16;1824442;77;21429;-59
2022/10/27 08:30:40;;;;;;;5.42;3.70;;;;;;;13.48;100.00;100515.66;1810841;78;21016;-59
2022/10/27 08:33:07;;;;;;;4.08;3.33;;;;;;;13.52;100.00;100524.70;1812113;78;21781;-61
2022/10/27 08:35:35;;;;;;;6.47;3.72;;;;;;;13.61;100.00;100526.12;1748118;80;21533;-63
2022/10/27 08:38:05;;;;;;;4.67;4.17;;;;;;;13.70;100.00;100532.81;1797127;78;21627;-61
2022/10/27 08:41:00;;;;;;;6.10;4.20;;;;;;;13.72;100.00;100525.68;1817549;77;21504;-61
2022/10/27 08:43:58;;;;;;;4.20;3.80;;;;;;;13.65;100.00;100527.70;1798629;78;21467;-59
2022/10/27 08:46:50;;;;;;;4.40;3.83;;;;;;;13.65;100.00;100532.14;1803238;78;21662;-58
2022/10/27 08:49:38;;;;;;;3.92;3.60;;;;;;;13.69;100.00;100524.47;1802509;78;21466;-57
2022/10/27 08:52:15;;;;;;;7.30;3.92;;;;;;;13.77;100.00;100532.48;1796433;78;21671;-57
2022/10/27 08:54:48;;;;;;;5.45;3.98;;;;;;;13.84;100.00;100535.72;1807116;77;21465;-56
2022/10/27 08:57:24;;;;;;;7.72;3.75;;;;;;;13.94;100.00;100533.57;1826082;78;20970;-55
2022/10/27 08:59:53;;;;;;;3.62;3.30;;;;;;;13.85;100.00;100529.52;1826281;78;22090;-56
2022/10/27 09:02:53;;;;;;;5.70;3.52;;;;;;;13.89;100.00;100527.14;1819548;78;21540;-55
2022/10/27 09:05:43;;;;;;;7.47;3.65;;;;;;;13.97;100.00;100533.42;1785551;78;21667;-55
2022/10/27 09:08:38;;;;;;;4.37;3.45;;;;;;;14.08;100.00;100530.33;1826188;77;21567;-55
2022/10/27 09:11:55;;;;;;;7.08;3.42;;;;;;;14.11;100.00;100535.46;1826373;77;21668;-56
2022/10/27 09:15:08;;;;;;;4.87;3.70;;;;;;;14.07;100.00;100543.13;1824171;78;21937;-56
2022/10/27 09:17:40;;;;;;;5.25;3.60;;;;;;;14.02;100.00;100534.09;1822873;78;21083;-55
2022/10/27 09:20:39;;;;;;;5.67;4.03;;;;;;;13.97;100.00;100540.03;1811155;78;21497;-55
2022/10/27 09:23:12;;;;;;;5.17;4.15;;;;;;;13.96;100.00;100539.18;1660858;86;21605;-55
2022/10/27 09:25:39;;;;;;;7.50;4.58;;;;;;;13.94;100.00;100548.11;1660792;86;21589;-56
2022/10/27 09:28:17;;;;;;;5.13;4.27;;;;;;;13.99;100.00;100550.95;1660961;85;21905;-59
2022/10/27 09:30:44;;;;;;;8.63;5.05;;;;;;;13.86;100.00;100540.48;1659036;83;21138;-61
2022/10/27 09:33:15;;;;;;;6.90;4.22;;;;;;;13.95;100.00;100547.17;1686386;83;20971;-61
2022/10/27 09:35:42;;;;;;;5.25;3.95;;;;;;;13.95;100.00;100544.05;1671397;84;20990;-61
2022/10/27 09:38:13;;;;;;;5.75;4.37;;;;;;;13.99;100.00;100538.18;1651837;86;21490;-59
2022/10/27 09:40:40;;;;;;;5.55;4.05;;;;;;;13.99;100.00;100545.67;1659926;85;21819;-59
2022/10/27 09:43:08;;;;;;;5.95;4.60;;;;;;;13.96;100.00;100541.83;1670011;84;21573;-58
2022/10/27 09:45:34;;;;;;;;;;;;;;;13.97;100.00;100545.31;1672319;84;21564;-60
2022/10/27 09:48:07;;;;;;;5.37;4.00;;;;;;;13.90;100.00;100550.02;1667476;84;20427;-63
2022/10/27 09:51:07;;;;;;;7.62;4.50;;;;;;;13.88;100.00;100543.94;1681385;84;21612;-57
2022/10/27 09:53:40;;;;;;;7.95;4.42;;;;;;;13.89;100.00;100549.61;1656698;86;21541;-58
2022/10/27 09:56:14;;;;;;;7.30;4.25;;;;;;;13.94;100.00;100548.96;1659109;84;21564;-60
2022/10/27 09:58:46;;;;;;;6.25;4.70;;;;;;;14.04;100.00;100553.86;1659259;85;21670;-59
2022/10/27 10:01:13;;;;;;;4.83;4.42;;;;;;;14.10;100.00;100537.73;1656937;84;21604;-58
2022/10/27 10:03:43;;;;;;;5.67;4.47;;;;;;;14.07;100.00;100548.42;1669511;83;21715;-60
2022/10/27 10:06:24;;;;;;;8.05;5.30;;;;;;;14.05;100.00;100542.34;1641691;86;21819;-59
2022/10/27 10:08:52;;;;;;;8.10;4.75;;;;;;;14.00;100.00;100539.91;1664321;84;21519;-59
2022/10/27 10:11:22;;;;;;;5.35;4.20;;;;;;;14.01;100.00;100537.20;1659676;85;21072;-59
2022/10/27 10:14:02;;;;;;;6.78;4.05;;;;;;;14.11;100.00;100537.66;1651115;86;21596;-60
2022/10/27 10:16:32;;;;;;;5.05;3.77;;;;;;;14.20;100.00;100543.88;1661859;84;21564;-61
2022/10/27 10:19:08;;;;;;;4.37;3.98;;;;;;;14.23;100.00;100540.70;1660401;85;22150;-58
2022/10/27 10:21:58;;;;;;;6.85;4.62;;;;;;;14.29;100.00;100539.10;1682189;83;21525;-58
2022/10/27 10:24:30;;;;;;;5.83;4.22;;;;;;;14.30;100.00;100539.04;1666209;84;21011;-59
2022/10/27 10:26:59;;;;;;;7.12;5.25;;;;;;;14.32;100.00;100533.22;1668011;85;21423;-59
2022/10/27 10:29:33;;;;;;;6.10;5.25;;;;;;;14.30;100.00;100535.08;1661124;85;21468;-57
2022/10/27 10:32:18;;;;;;;5.28;4.75;;;;;;;14.25;100.00;100527.80;1662547;84;21886;-59
2022/10/27 10:34:46;;;;;;;6.33;4.72;;;;;;;14.28;100.00;100528.11;1665870;85;21568;-58
2022/10/27 10:37:32;;;;;;;6.55;4.50;;;;;;;14.33;100.00;100529.63;1650987;86;26379;-58
2022/10/27 10:40:18;;;;;;;7.97;5.33;;;;;;;14.36;100.00;100529.50;1660991;85;21682;-58
2022/10/27 10:42:48;;;;;;;5.70;4.65;;;;;;;14.38;100.00;100526.32;1669597;83;21523;-59
2022/10/27 10:45:21;;;;;;;4.70;4.22;;;;;;;14.38;100.00;100521.50;1678645;84;21953;-60
2022/10/27 10:47:58;;;;;;;6.35;4.80;;;;;;;14.39;100.00;100524.53;1682604;83;21625;-59
2022/10/27 10:50:27;;;;;;;8.20;4.80;;;;;;;14.49;100.00;100528.97;1677151;84;21435;-60
2022/10/27 10:52:56;;;;;;;7.28;5.20;;;;;;;14.53;100.00;100527.42;1672173;84;21572;-60
2022/10/27 10:55:27;;;;;;;6.35;4.83;;;;;;;14.56;100.00;100528.63;1656104;86;21072;-59
2022/10/27 10:57:55;;;;;;;6.33;4.95;;;;;;;14.57;100.00;100526.86;1644066;84;21952;-60
2022/10/27 11:00:23;;;;;;;5.92;5.03;;;;;;;14.57;100.00;100530.83;1681677;83;21141;-60
2022/10/27 11:03:01;;;;;;;6.78;4.83;;;;;;;14.59;100.00;100531.61;1683044;84;21631;-61
2022/10/27 11:05:30;;;;;;;8.38;5.12;;;;;;;14.62;100.00;100534.13;1671560;84;26592;-62
2022/10/27 11:07:58;;;;;;;4.83;4.28;;;;;;;14.67;100.00;100529.94;1675662;85;21496;-60
2022/10/27 11:10:32;;;;;;;8.13;4.60;;;;;;;14.74;100.00;100527.41;1674838;84;21861;-61
2022/10/27 11:13:17;;;;;;;7.97;4.47;;;;;;;14.86;100.00;100534.80;1675250;83;21517;-63
2022/10/27 11:15:53;;;;;;;4.80;4.12;;;;;;;14.89;100.00;100528.49;1663676;84;21679;-62
2022/10/27 11:18:30;;;;;;;6.70;4.17;;;;;;;14.95;100.00;100523.75;1686280;83;21025;-60
2022/10/27 11:21:13;;;;;;;5.10;4.50;;;;;;;14.97;100.00;100528.54;1673519;83;21734;-60
2022/10/27 11:23:49;;;;;;;8.95;4.97;;;;;;;15.04;100.00;100526.92;1671171;84;21662;-59
2022/10/27 11:26:23;;;;;;;5.45;4.35;;;;;;;15.05;100.00;100525.97;1669802;84;20973;-59
2022/10/27 11:29:04;;;;;;;6.05;5.03;;;;;;;15.03;100.00;100522.09;1677429;83;21631;-59
2022/10/27 11:31:39;;;;;;;8.80;4.03;;;;;;;15.05;100.00;100524.64;1668232;84;21450;-59
2022/10/27 11:34:20;;;;;;;5.45;4.40;;;;;;;15.00;100.00;100524.87;1687602;84;21662;-59
2022/10/27 11:36:52;;;;;;;4.35;3.92;;;;;;;15.06;100.00;100517.95;1679383;83;21955;-61
2022/10/27 11:39:39;;;;;;;5.62;4.20;;;;;;;15.05;100.00;100522.88;1664587;84;21738;-58
2022/10/27 11:42:36;;;;;;;4.72;3.37;;;;;;;15.04;100.00;100521.14;1674373;85;21616;-58
2022/10/27 11:45:08;;;;;;;3.60;3.30;;;;;;;14.99;100.00;100522.70;1678699;83;21525;-58
2022/10/27 11:47:44;;;;;;;3.98;3.47;;;;;;;14.99;100.00;100524.47;1667898;84;21088;-57
2022/10/27 11:50:21;;;;;;;5.50;3.50;;;;;;;15.02;100.00;100526.98;1661270;85;21789;-57
2022/10/27 11:52:49;;;;;;;4.90;3.70;;;;;;;15.01;100.00;100529.22;1658070;85;21549;-56
2022/10/27 11:55:20;;;;;;;4.22;3.45;;;;;;;15.05;100.00;100546.71;1660854;84;21519;-57
2022/10/27 11:58:23;;;;;;;4.20;3.40;;;;;;;15.04;100.00;100535.71;1664971;84;21458;-59
2022/10/27 12:01:07;;;;;;;3.77;3.27;;;;;;;14.99;100.00;100540.36;1669426;84;21552;-56
2022/10/27 12:03:45;;;;;;;6.17;3.20;;;;;;;14.90;100.00;100538.13;1649561;84;21538;-56
2022/10/27 12:06:26;;;;;;;7.85;3.65;;;;;;;14.82;100.00;100549.08;1670564;84;21500;-56
2022/10/27 12:09:10;;;;;;;3.40;3.10;;;;;;;14.76;100.00;100544.93;1666383;84;21576;-56
2022/10/27 12:11:52;;;;;;;5.53;3.72;;;;;;;14.74;100.00;100550.77;1677854;84;21143;-57
2022/10/27 12:14:30;;;;;;;4.72;3.40;;;;;;;14.70;100.00;100547.87;1680321;84;21518;-57
2022/10/27 12:17:20;;;;;;;3.00;2.70;;;;;;;14.72;100.00;100543.83;1671012;84;21832;-57
2022/10/27 12:19:47;;;;;;;3.75;3.15;;;;;;;14.74;100.00;100553.41;1667956;84;21441;-56
2022/10/27 12:22:35;;;;;;;4.10;3.00;;;;;;;14.74;100.00;100553.41;1676212;84;21500;-57
2022/10/27 12:25:14;;;;;;;4.25;3.15;;;;;;;14.69;100.00;100553.22;1670536;84;21564;-57
2022/10/27 12:27:44;;;;;;;6.60;3.40;;;;;;;14.69;100.00;100553.22;1660617;84;21607;-57
2022/10/27 12:30:21;;;;;;;3.60;3.10;;;;;;;14.71;100.00;100560.19;1661724;84;22109;-57
2022/10/27 12:33:08;;;;;;;6.60;3.30;;;;;;;14.70;100.00;100553.16;1685548;84;21552;-57
2022/10/27 12:35:58;;;;;;;3.75;3.20;;;;;;;14.69;100.00;100551.90;1666458;84;21090;-57
2022/10/27 12:38:40;;;;;;;3.98;3.00;;;;;;;14.65;100.00;100557.80;1674499;84;21071;-57
2022/10/27 12:41:24;;;;;;;4.33;2.92;;;;;;;14.62;100.00;100555.30;1661246;84;21494;-57
2022/10/27 12:44:20;;;;;;;4.28;3.08;;;;;;;14.63;100.00;100555.69;1678916;83;21948;-57
2022/10/27 12:47:01;;;;;;;4.30;3.00;;;;;;;14.66;100.00;100558.20;1670309;84;21914;-57
2022/10/27 12:50:03;;;;;;;3.75;3.20;;;;;;;14.67;100.00;100562.55;1671615;84;21465;-56
2022/10/27 12:52:33;;;;;;;3.87;3.05;;;;;;;14.68;100.00;100560.31;1662476;84;21552;-57
2022/10/27 12:55:23;;;;;;;3.37;2.95;;;;;;;14.65;100.00;100566.20;1675493;83;21568;-57
2022/10/27 12:58:07;;;;;;;3.45;2.58;;;;;;;14.65;100.00;100566.20;1667203;84;21698;-57
2022/10/27 13:00:57;;;;;;;5.83;3.00;;;;;;;14.70;100.00;100566.87;1672523;84;21474;-57
2022/10/27 13:03:46;;;;;;;5.47;3.17;;;;;;;14.75;100.00;100568.38;1676927;84;21710;-57
2022/10/27 13:06:47;;;;;;;4.37;3.30;;;;;;;14.71;100.00;100573.86;1633305;87;21556;-57
2022/10/27 13:09:35;;;;;;;5.92;3.95;;;;;;;14.68;100.00;100570.05;1663448;84;21801;-56
2022/10/27 13:12:27;;;;;;;7.53;4.40;;;;;;;14.64;100.00;100573.77;1665329;84;21854;-56
2022/10/27 13:15:15;;;;;;;7.40;3.85;;;;;;;14.60;100.00;100566.42;1677737;83;21438;-57
2022/10/27 13:18:10;;;;;;;7.10;4.47;;;;;;;14.60;100.00;100569.08;1675948;83;21123;-57
2022/10/27 13:21:12;;;;;;;5.30;3.75;;;;;;;14.51;100.00;100561.51;1682502;83;21476;-56
2022/10/27 13:23:56;;;;;;;4.97;3.42;;;;;;;14.53;100.00;100571.56;1678543;84;21517;-56
2022/10/27 13:26:40;;;;;;;4.65;3.35;;;;;;;14.58;100.00;100577.55;1659169;84;22151;-56
2022/10/27 13:29:37;;;;;;;3.55;2.98;;;;;;;14.66;100.00;100578.05;1686010;84;21464;-59
2022/10/27 13:32:29;;;;;;;6.22;3.45;;;;;;;14.66;100.00;100578.05;1674288;84;21544;-62
2022/10/27 13:35:05;;;;;;;3.75;2.72;;;;;;;14.60;100.00;100581.84;1681012;83;21563;-58
2022/10/27 13:37:59;;;;;;;3.05;2.67;;;;;;;14.57;100.00;100580.63;1683461;83;21453;-55
2022/10/27 13:40:34;;;;;;;3.40;3.02;;;;;;;14.56;100.00;100585.52;1680512;83;21816;-56
2022/10/27 13:43:31;;;;;;;4.58;2.80;;;;;;;14.55;100.00;100583.78;1674045;84;20977;-56
2022/10/27 13:45:59;;;;;;;4.67;2.80;;;;;;;14.51;100.00;100590.14;1680677;83;21505;-56
2022/10/27 13:48:30;;;;;;;5.72;3.12;;;;;;;14.50;100.00;100591.53;1674338;84;21461;-57
2022/10/27 17:36:56;;;;;;;7.60;5.00;;;;;;;10.82;100.00;100748.13;1832899;75;26892;-59
2022/10/27 17:39:23;;;;;;;6.97;5.12;;;;;;;11.04;100.00;100763.75;1813277;78;21448;-59
2022/10/27 17:49:04;;;;;;;8.18;4.58;;;;;;;11.60;100.00;100774.93;1838129;77;20975;-59
2022/10/27 17:51:31;;;;;;;5.33;4.50;;;;;;;11.75;100.00;100772.27;1836015;77;20975;-59
2022/10/27 17:54:01;;;;;;;10.18;5.37;;;;;;;11.87;100.00;100771.92;1825054;77;20922;-60
2022/10/27 17:56:34;;;;;;;7.25;5.50;;;;;;;11.99;100.00;100768.07;1822802;77;22132;-60
2022/10/27 17:59:01;;;;;;;7.55;5.45;;;;;;;12.08;100.00;100757.25;1804298;77;21424;-60
2022/10/27 18:01:32;;;;;;;8.85;5.28;;;;;;;12.19;100.00;100754.74;1815020;77;21435;-59
2022/10/27 18:04:03;;;;;;;5.92;4.85;;;;;;;12.26;100.00;100749.22;1823827;78;21553;-60
2022/10/27 18:06:30;;;;;;;5.78;4.97;;;;;;;12.36;100.00;100748.46;1812598;77;21513;-60
2022/10/27 18:08:58;;;;;;;6.85;5.67;;;;;;;12.44;100.00;100746.89;1819997;77;21879;-60
2022/10/27 18:11:30;;;;;;;6.08;5.37;;;;;;;12.52;100.00;100744.00;1807199;77;21569;-59
2022/10/27 18:13:59;;;;;;;7.15;5.42;;;;;;;12.55;100.00;100744.76;1813704;78;21427;-60
2022/10/27 18:16:29;;;;;;;7.20;5.20;;;;;;;12.58;100.00;100749.06;1807992;78;21420;-60
2022/10/27 18:19:05;;;;;;;5.72;5.10;;;;;;;12.59;100.00;100750.33;1741641;81;20927;-59
2022/10/27 18:21:34;;;;;;;5.22;4.70;;;;;;;12.59;100.00;100745.05;1741566;80;22201;-60
2022/10/27 18:24:03;;;;;;;5.42;4.80;;;;;;;12.62;100.00;100740.12;1761098;80;21443;-60
2022/10/27 18:26:41;;;;;;;6.42;4.60;;;;;;;12.69;100.00;100743.42;1746086;80;21441;-62
2022/10/27 18:29:10;;;;;;;5.70;4.65;;;;;;;12.73;100.00;100745.05;1747684;80;21042;-60
2022/10/27 18:31:37;;;;;;;5.00;4.40;;;;;;;12.78;100.00;100747.92;1746562;80;21623;-60
2022/10/27 18:34:05;;;;;;;4.80;4.40;;;;;;;12.78;100.00;100747.92;1753111;80;21827;-60
2022/10/27 18:36:32;;;;;;;7.17;4.53;;;;;;;12.78;100.00;100752.35;1759403;80;21455;-60